sensor_id;sensor_type;location;lat;lon;timestamp;P1;durP1;ratioP1;P2;durP2;ratioP2
10275;SDS011;5183;51.190;6.820;2022-09-09T00:00:18;4.23;;;1.90;;
10275;SDS011;5183;51.190;6.820;2022-09-09T00:02:48;4.13;;;1.70;;
10275;SDS011;5183;51.190;6.820;2022-09-09T00:05:22;3.67;;;1.77;;
10275;SDS011;5183;51.190;6.820;2022-09-09T00:07:57;3.30;;;1.73;;
10275;SDS011;5183;51.190;6.820;2022-09-09T00:10:29;2.67;;;1.67;;
10275;SDS011;5183;51.190;6.820;2022-09-09T00:13:01;7.27;;;2.60;;
10275;SDS011;5183;51.190;6.820;2022-09-09T00:15:37;3.10;;;2.20;;
10275;SDS011;5183;51.190;6.820;2022-09-09T00:18:10;4.47;;;2.90;;
10275;SDS011;5183;51.190;6.820;2022-09-09T00:20:45;4.00;;;3.10;;
10275;SDS011;5183;51.190;6.820;2022-09-09T00:23:17;5.07;;;3.43;;
10275;SDS011;5183;51.190;6.820;2022-09-09T00:25:52;5.27;;;3.40;;
10275;SDS011;5183;51.190;6.820;2022-09-09T00:28:27;4.07;;;3.30;;
10275;SDS011;5183;51.190;6.820;2022-09-09T00:30:57;5.47;;;3.80;;
10275;SDS011;5183;51.190;6.820;2022-09-09T00:33:27;4.93;;;2.80;;
10275;SDS011;5183;51.190;6.820;2022-09-09T00:35:57;3.60;;;2.67;;
10275;SDS011;5183;51.190;6.820;2022-09-09T00:38:26;4.57;;;2.63;;
10275;SDS011;5183;51.190;6.820;2022-09-09T00:41:03;2.80;;;2.33;;
10275;SDS011;5183;51.190;6.820;2022-09-09T00:43:38;4.20;;;2.70;;
10275;SDS011;5183;51.190;6.820;2022-09-09T00:46:13;3.63;;;2.30;;
10275;SDS011;5183;51.190;6.820;2022-09-09T00:48:53;4.33;;;2.40;;
10275;SDS011;5183;51.190;6.820;2022-09-09T00:51:29;3.83;;;2.37;;
10275;SDS011;5183;51.190;6.820;2022-09-09T00:54:10;4.03;;;2.40;;
10275;SDS011;5183;51.190;6.820;2022-09-09T00:57:02;4.33;;;2.20;;
10275;SDS011;5183;51.190;6.820;2022-09-09T00:59:45;4.07;;;2.60;;
10275;SDS011;5183;51.190;6.820;2022-09-09T01:02:16;5.23;;;2.40;;
10275;SDS011;5183;51.190;6.820;2022-09-09T01:04:54;3.27;;;1.90;;
10275;SDS011;5183;51.190;6.820;2022-09-09T01:07:28;4.20;;;2.20;;
10275;SDS011;5183;51.190;6.820;2022-09-09T01:09:55;4.60;;;2.20;;
10275;SDS011;5183;51.190;6.820;2022-09-09T01:12:24;2.80;;;1.93;;
10275;SDS011;5183;51.190;6.820;2022-09-09T01:14:58;3.50;;;2.00;;
10275;SDS011;5183;51.190;6.820;2022-09-09T01:17:32;3.07;;;1.90;;
10275;SDS011;5183;51.190;6.820;2022-09-09T01:20:04;5.23;;;2.10;;
10275;SDS011;5183;51.190;6.820;2022-09-09T01:22:38;4.37;;;1.90;;
10275;SDS011;5183;51.190;6.820;2022-09-09T01:25:18;3.23;;;1.70;;
10275;SDS011;5183;51.190;6.820;2022-09-09T01:27:55;5.83;;;2.30;;
10275;SDS011;5183;51.190;6.820;2022-09-09T01:30:24;5.30;;;1.93;;
10275;SDS011;5183;51.190;6.820;2022-09-09T01:32:53;4.43;;;2.20;;
10275;SDS011;5183;51.190;6.820;2022-09-09T01:35:27;3.27;;;1.50;;
10275;SDS011;5183;51.190;6.820;2022-09-09T01:37:58;4.10;;;1.70;;
10275;SDS011;5183;51.190;6.820;2022-09-09T01:40:26;2.77;;;2.00;;
10275;SDS011;5183;51.190;6.820;2022-09-09T01:42:53;4.40;;;2.13;;
10275;SDS011;5183;51.190;6.820;2022-09-09T01:45:21;3.43;;;1.60;;
10275;SDS011;5183;51.190;6.820;2022-09-09T01:47:49;3.83;;;1.80;;
10275;SDS011;5183;51.190;6.820;2022-09-09T01:50:18;4.23;;;2.00;;
10275;SDS011;5183;51.190;6.820;2022-09-09T01:52:46;3.43;;;2.07;;
10275;SDS011;5183;51.190;6.820;2022-09-09T01:55:15;5.57;;;2.10;;
10275;SDS011;5183;51.190;6.820;2022-09-09T01:57:43;3.33;;;1.80;;
10275;SDS011;5183;51.190;6.820;2022-09-09T02:00:17;3.87;;;2.03;;
10275;SDS011;5183;51.190;6.820;2022-09-09T02:02:46;3.63;;;2.03;;
10275;SDS011;5183;51.190;6.820;2022-09-09T02:05:25;3.73;;;2.13;;
10275;SDS011;5183;51.190;6.820;2022-09-09T02:08:00;3.70;;;1.50;;
10275;SDS011;5183;51.190;6.820;2022-09-09T02:10:32;4.23;;;2.10;;
10275;SDS011;5183;51.190;6.820;2022-09-09T02:13:07;3.27;;;1.83;;
10275;SDS011;5183;51.190;6.820;2022-09-09T02:15:40;2.77;;;1.80;;
10275;SDS011;5183;51.190;6.820;2022-09-09T02:18:12;2.70;;;1.90;;
10275;SDS011;5183;51.190;6.820;2022-09-09T02:20:46;3.87;;;1.93;;
10275;SDS011;5183;51.190;6.820;2022-09-09T02:23:14;4.27;;;1.73;;
10275;SDS011;5183;51.190;6.820;2022-09-09T02:25:41;4.13;;;1.80;;
10275;SDS011;5183;51.190;6.820;2022-09-09T02:28:11;4.33;;;1.70;;
10275;SDS011;5183;51.190;6.820;2022-09-09T02:30:42;3.93;;;1.90;;
10275;SDS011;5183;51.190;6.820;2022-09-09T02:33:12;3.03;;;1.70;;
10275;SDS011;5183;51.190;6.820;2022-09-09T02:35:40;4.37;;;1.80;;
10275;SDS011;5183;51.190;6.820;2022-09-09T02:38:10;4.83;;;2.17;;
10275;SDS011;5183;51.190;6.820;2022-09-09T02:40:39;3.60;;;1.67;;
10275;SDS011;5183;51.190;6.820;2022-09-09T02:43:06;2.53;;;1.40;;
10275;SDS011;5183;51.190;6.820;2022-09-09T02:45:35;4.07;;;1.60;;
10275;SDS011;5183;51.190;6.820;2022-09-09T02:48:11;4.30;;;1.50;;
10275;SDS011;5183;51.190;6.820;2022-09-09T02:50:46;2.47;;;1.40;;
10275;SDS011;5183;51.190;6.820;2022-09-09T02:53:22;4.70;;;1.70;;
10275;SDS011;5183;51.190;6.820;2022-09-09T02:55:54;3.67;;;1.40;;
10275;SDS011;5183;51.190;6.820;2022-09-09T02:58:24;2.77;;;1.63;;
10275;SDS011;5183;51.190;6.820;2022-09-09T03:00:51;3.77;;;1.47;;
10275;SDS011;5183;51.190;6.820;2022-09-09T03:03:20;3.37;;;1.37;;
10275;SDS011;5183;51.190;6.820;2022-09-09T03:05:47;3.40;;;1.50;;
10275;SDS011;5183;51.190;6.820;2022-09-09T03:08:14;3.37;;;1.50;;
10275;SDS011;5183;51.190;6.820;2022-09-09T03:10:42;2.80;;;1.40;;
10275;SDS011;5183;51.190;6.820;2022-09-09T03:13:08;2.97;;;1.40;;
10275;SDS011;5183;51.190;6.820;2022-09-09T03:15:37;3.60;;;1.40;;
10275;SDS011;5183;51.190;6.820;2022-09-09T03:18:04;4.43;;;1.80;;
10275;SDS011;5183;51.190;6.820;2022-09-09T03:20:32;6.63;;;1.60;;
10275;SDS011;5183;51.190;6.820;2022-09-09T03:22:59;4.67;;;1.30;;
10275;SDS011;5183;51.190;6.820;2022-09-09T03:25:27;3.40;;;1.50;;
10275;SDS011;5183;51.190;6.820;2022-09-09T03:27:55;3.77;;;1.57;;
10275;SDS011;5183;51.190;6.820;2022-09-09T03:30:22;3.07;;;1.60;;
10275;SDS011;5183;51.190;6.820;2022-09-09T03:32:50;3.57;;;1.70;;
10275;SDS011;5183;51.190;6.820;2022-09-09T03:35:17;3.73;;;1.80;;
10275;SDS011;5183;51.190;6.820;2022-09-09T03:37:46;2.57;;;1.87;;
10275;SDS011;5183;51.190;6.820;2022-09-09T03:40:13;6.67;;;5.10;;
10275;SDS011;5183;51.190;6.820;2022-09-09T03:42:40;4.60;;;2.20;;
10275;SDS011;5183;51.190;6.820;2022-09-09T03:45:07;3.97;;;1.70;;
10275;SDS011;5183;51.190;6.820;2022-09-09T03:47:35;4.07;;;1.70;;
10275;SDS011;5183;51.190;6.820;2022-09-09T03:50:03;4.17;;;2.03;;
10275;SDS011;5183;51.190;6.820;2022-09-09T03:52:34;3.77;;;1.83;;
10275;SDS011;5183;51.190;6.820;2022-09-09T03:55:03;4.00;;;2.00;;
10275;SDS011;5183;51.190;6.820;2022-09-09T03:57:30;6.30;;;2.37;;
10275;SDS011;5183;51.190;6.820;2022-09-09T04:00:00;6.63;;;2.40;;
10275;SDS011;5183;51.190;6.820;2022-09-09T04:02:27;5.57;;;3.53;;
10275;SDS011;5183;51.190;6.820;2022-09-09T04:04:54;5.77;;;3.60;;
10275;SDS011;5183;51.190;6.820;2022-09-09T04:07:21;5.37;;;2.90;;
10275;SDS011;5183;51.190;6.820;2022-09-09T04:09:48;3.97;;;2.17;;
10275;SDS011;5183;51.190;6.820;2022-09-09T04:12:16;6.80;;;3.17;;
10275;SDS011;5183;51.190;6.820;2022-09-09T04:14:43;5.53;;;2.40;;
10275;SDS011;5183;51.190;6.820;2022-09-09T04:17:09;5.93;;;2.83;;
10275;SDS011;5183;51.190;6.820;2022-09-09T04:19:36;5.47;;;2.67;;
10275;SDS011;5183;51.190;6.820;2022-09-09T04:22:03;6.43;;;2.60;;
10275;SDS011;5183;51.190;6.820;2022-09-09T04:24:30;8.47;;;2.40;;
10275;SDS011;5183;51.190;6.820;2022-09-09T04:26:57;5.67;;;2.30;;
10275;SDS011;5183;51.190;6.820;2022-09-09T04:29:25;4.67;;;2.20;;
10275;SDS011;5183;51.190;6.820;2022-09-09T04:31:52;8.87;;;2.77;;
10275;SDS011;5183;51.190;6.820;2022-09-09T04:34:18;5.73;;;2.30;;
10275;SDS011;5183;51.190;6.820;2022-09-09T04:36:46;6.50;;;3.13;;
10275;SDS011;5183;51.190;6.820;2022-09-09T04:39:12;5.37;;;3.17;;
10275;SDS011;5183;51.190;6.820;2022-09-09T04:41:39;5.63;;;2.13;;
10275;SDS011;5183;51.190;6.820;2022-09-09T04:44:06;6.03;;;2.13;;
10275;SDS011;5183;51.190;6.820;2022-09-09T04:46:34;6.93;;;2.90;;
10275;SDS011;5183;51.190;6.820;2022-09-09T04:49:01;6.13;;;2.20;;
10275;SDS011;5183;51.190;6.820;2022-09-09T04:51:28;5.67;;;2.40;;
10275;SDS011;5183;51.190;6.820;2022-09-09T04:53:56;4.70;;;1.90;;
10275;SDS011;5183;51.190;6.820;2022-09-09T04:56:23;4.80;;;1.90;;
10275;SDS011;5183;51.190;6.820;2022-09-09T04:58:52;8.60;;;3.70;;
10275;SDS011;5183;51.190;6.820;2022-09-09T05:01:19;5.33;;;3.00;;
10275;SDS011;5183;51.190;6.820;2022-09-09T05:03:50;4.87;;;2.57;;
10275;SDS011;5183;51.190;6.820;2022-09-09T05:06:18;4.97;;;2.60;;
10275;SDS011;5183;51.190;6.820;2022-09-09T05:08:46;5.20;;;2.00;;
10275;SDS011;5183;51.190;6.820;2022-09-09T05:11:18;5.90;;;2.43;;
10275;SDS011;5183;51.190;6.820;2022-09-09T05:13:46;7.00;;;3.07;;
10275;SDS011;5183;51.190;6.820;2022-09-09T05:16:15;7.17;;;2.73;;
10275;SDS011;5183;51.190;6.820;2022-09-09T05:18:42;5.60;;;2.90;;
10275;SDS011;5183;51.190;6.820;2022-09-09T05:21:12;7.13;;;3.93;;
10275;SDS011;5183;51.190;6.820;2022-09-09T05:23:40;5.67;;;2.40;;
10275;SDS011;5183;51.190;6.820;2022-09-09T05:26:09;8.10;;;3.20;;
10275;SDS011;5183;51.190;6.820;2022-09-09T05:28:39;6.77;;;3.30;;
10275;SDS011;5183;51.190;6.820;2022-09-09T05:31:07;6.90;;;2.90;;
10275;SDS011;5183;51.190;6.820;2022-09-09T05:33:36;6.97;;;2.70;;
10275;SDS011;5183;51.190;6.820;2022-09-09T05:36:06;5.67;;;2.70;;
10275;SDS011;5183;51.190;6.820;2022-09-09T05:38:37;7.43;;;2.23;;
10275;SDS011;5183;51.190;6.820;2022-09-09T05:41:04;4.07;;;2.10;;
10275;SDS011;5183;51.190;6.820;2022-09-09T05:43:31;4.70;;;2.00;;
10275;SDS011;5183;51.190;6.820;2022-09-09T05:46:00;5.97;;;2.17;;
10275;SDS011;5183;51.190;6.820;2022-09-09T05:48:29;4.33;;;2.33;;
10275;SDS011;5183;51.190;6.820;2022-09-09T05:50:57;5.80;;;2.40;;
10275;SDS011;5183;51.190;6.820;2022-09-09T05:53:24;5.67;;;2.77;;
10275;SDS011;5183;51.190;6.820;2022-09-09T05:55:59;6.27;;;3.40;;
10275;SDS011;5183;51.190;6.820;2022-09-09T05:58:28;5.60;;;2.20;;
10275;SDS011;5183;51.190;6.820;2022-09-09T06:01:00;7.57;;;2.03;;
10275;SDS011;5183;51.190;6.820;2022-09-09T06:03:27;7.23;;;2.60;;
10275;SDS011;5183;51.190;6.820;2022-09-09T06:05:58;5.60;;;2.20;;
10275;SDS011;5183;51.190;6.820;2022-09-09T06:08:26;5.10;;;2.00;;
10275;SDS011;5183;51.190;6.820;2022-09-09T06:10:53;5.47;;;2.10;;
10275;SDS011;5183;51.190;6.820;2022-09-09T06:13:29;5.20;;;2.10;;
10275;SDS011;5183;51.190;6.820;2022-09-09T06:15:56;5.20;;;2.50;;
10275;SDS011;5183;51.190;6.820;2022-09-09T06:18:23;6.63;;;2.10;;
10275;SDS011;5183;51.190;6.820;2022-09-09T06:20:54;5.67;;;1.97;;
10275;SDS011;5183;51.190;6.820;2022-09-09T06:23:21;3.50;;;1.97;;
10275;SDS011;5183;51.190;6.820;2022-09-09T06:25:48;3.20;;;1.83;;
10275;SDS011;5183;51.190;6.820;2022-09-09T06:28:16;6.23;;;1.90;;
10275;SDS011;5183;51.190;6.820;2022-09-09T06:30:44;4.93;;;1.90;;
10275;SDS011;5183;51.190;6.820;2022-09-09T06:33:12;6.83;;;1.93;;
10275;SDS011;5183;51.190;6.820;2022-09-09T06:35:39;4.60;;;1.90;;
10275;SDS011;5183;51.190;6.820;2022-09-09T06:38:05;6.63;;;1.90;;
10275;SDS011;5183;51.190;6.820;2022-09-09T06:40:33;5.10;;;1.90;;
10275;SDS011;5183;51.190;6.820;2022-09-09T06:43:00;4.70;;;1.67;;
10275;SDS011;5183;51.190;6.820;2022-09-09T06:45:27;6.37;;;1.80;;
10275;SDS011;5183;51.190;6.820;2022-09-09T06:47:56;5.23;;;1.80;;
10275;SDS011;5183;51.190;6.820;2022-09-09T06:50:22;4.47;;;1.70;;
10275;SDS011;5183;51.190;6.820;2022-09-09T06:52:49;5.00;;;1.63;;
10275;SDS011;5183;51.190;6.820;2022-09-09T06:55:16;9.13;;;2.00;;
10275;SDS011;5183;51.190;6.820;2022-09-09T06:57:43;7.03;;;2.03;;
10275;SDS011;5183;51.190;6.820;2022-09-09T07:00:11;9.40;;;1.97;;
10275;SDS011;5183;51.190;6.820;2022-09-09T07:02:38;5.33;;;1.83;;
10275;SDS011;5183;51.190;6.820;2022-09-09T07:05:08;9.27;;;1.90;;
10275;SDS011;5183;51.190;6.820;2022-09-09T07:07:35;10.70;;;2.37;;
10275;SDS011;5183;51.190;6.820;2022-09-09T07:10:02;5.20;;;1.57;;
10275;SDS011;5183;51.190;6.820;2022-09-09T07:12:30;6.37;;;2.17;;
10275;SDS011;5183;51.190;6.820;2022-09-09T07:14:57;3.53;;;1.60;;
10275;SDS011;5183;51.190;6.820;2022-09-09T07:17:24;4.87;;;1.47;;
10275;SDS011;5183;51.190;6.820;2022-09-09T07:19:51;7.47;;;3.30;;
10275;SDS011;5183;51.190;6.820;2022-09-09T07:22:19;4.30;;;1.50;;
10275;SDS011;5183;51.190;6.820;2022-09-09T07:24:46;5.03;;;1.80;;
10275;SDS011;5183;51.190;6.820;2022-09-09T07:27:14;5.53;;;1.73;;
10275;SDS011;5183;51.190;6.820;2022-09-09T07:29:42;5.50;;;2.03;;
10275;SDS011;5183;51.190;6.820;2022-09-09T07:32:10;8.27;;;2.00;;
10275;SDS011;5183;51.190;6.820;2022-09-09T07:34:37;4.27;;;1.60;;
10275;SDS011;5183;51.190;6.820;2022-09-09T07:37:03;3.67;;;1.67;;
10275;SDS011;5183;51.190;6.820;2022-09-09T07:39:32;6.20;;;1.50;;
10275;SDS011;5183;51.190;6.820;2022-09-09T07:41:59;4.23;;;1.50;;
10275;SDS011;5183;51.190;6.820;2022-09-09T07:44:26;5.17;;;1.60;;
10275;SDS011;5183;51.190;6.820;2022-09-09T07:46:53;4.73;;;1.60;;
10275;SDS011;5183;51.190;6.820;2022-09-09T07:49:20;4.60;;;1.93;;
10275;SDS011;5183;51.190;6.820;2022-09-09T07:51:47;11.83;;;2.13;;
10275;SDS011;5183;51.190;6.820;2022-09-09T07:54:15;5.00;;;1.50;;
10275;SDS011;5183;51.190;6.820;2022-09-09T07:56:46;5.13;;;1.57;;
10275;SDS011;5183;51.190;6.820;2022-09-09T07:59:14;6.73;;;1.60;;
10275;SDS011;5183;51.190;6.820;2022-09-09T08:01:42;4.90;;;1.90;;
10275;SDS011;5183;51.190;6.820;2022-09-09T08:04:11;6.47;;;1.70;;
10275;SDS011;5183;51.190;6.820;2022-09-09T08:06:42;4.80;;;1.63;;
10275;SDS011;5183;51.190;6.820;2022-09-09T08:09:11;6.23;;;1.90;;
10275;SDS011;5183;51.190;6.820;2022-09-09T08:11:39;6.33;;;1.97;;
10275;SDS011;5183;51.190;6.820;2022-09-09T08:14:08;5.50;;;1.60;;
10275;SDS011;5183;51.190;6.820;2022-09-09T08:16:36;3.77;;;1.60;;
10275;SDS011;5183;51.190;6.820;2022-09-09T08:19:06;7.40;;;2.23;;
10275;SDS011;5183;51.190;6.820;2022-09-09T08:21:34;2.87;;;1.50;;
10275;SDS011;5183;51.190;6.820;2022-09-09T08:24:04;5.63;;;1.73;;
10275;SDS011;5183;51.190;6.820;2022-09-09T08:26:32;5.63;;;1.80;;
10275;SDS011;5183;51.190;6.820;2022-09-09T08:29:00;4.77;;;1.80;;
10275;SDS011;5183;51.190;6.820;2022-09-09T08:31:31;5.57;;;1.93;;
10275;SDS011;5183;51.190;6.820;2022-09-09T08:33:59;5.20;;;1.63;;
10275;SDS011;5183;51.190;6.820;2022-09-09T08:36:28;4.63;;;1.53;;
10275;SDS011;5183;51.190;6.820;2022-09-09T08:38:58;6.27;;;1.73;;
10275;SDS011;5183;51.190;6.820;2022-09-09T08:44:28;4.80;;;1.63;;
10275;SDS011;5183;51.190;6.820;2022-09-09T08:47:06;5.33;;;1.90;;
10275;SDS011;5183;51.190;6.820;2022-09-09T08:49:57;3.33;;;1.50;;
10275;SDS011;5183;51.190;6.820;2022-09-09T08:52:44;6.03;;;1.70;;
10275;SDS011;5183;51.190;6.820;2022-09-09T08:55:20;5.37;;;1.50;;
10275;SDS011;5183;51.190;6.820;2022-09-09T08:57:53;4.77;;;1.67;;
10275;SDS011;5183;51.190;6.820;2022-09-09T09:00:22;4.03;;;1.90;;
10275;SDS011;5183;51.190;6.820;2022-09-09T09:02:58;4.13;;;1.43;;
10275;SDS011;5183;51.190;6.820;2022-09-09T09:05:32;5.00;;;1.83;;
10275;SDS011;5183;51.190;6.820;2022-09-09T09:08:05;4.80;;;1.70;;
10275;SDS011;5183;51.190;6.820;2022-09-09T09:10:42;5.27;;;1.50;;
10275;SDS011;5183;51.190;6.820;2022-09-09T09:13:14;6.63;;;1.97;;
10275;SDS011;5183;51.190;6.820;2022-09-09T09:15:43;7.40;;;2.00;;
10275;SDS011;5183;51.190;6.820;2022-09-09T09:18:16;3.67;;;1.97;;
10275;SDS011;5183;51.190;6.820;2022-09-09T09:20:47;6.83;;;1.70;;
10275;SDS011;5183;51.190;6.820;2022-09-09T09:23:21;3.77;;;1.40;;
10275;SDS011;5183;51.190;6.820;2022-09-09T09:25:49;5.10;;;1.70;;
10275;SDS011;5183;51.190;6.820;2022-09-09T09:28:20;4.50;;;1.77;;
10275;SDS011;5183;51.190;6.820;2022-09-09T09:30:50;3.77;;;1.20;;
10275;SDS011;5183;51.190;6.820;2022-09-09T09:33:22;6.37;;;1.67;;
10275;SDS011;5183;51.190;6.820;2022-09-09T09:35:52;3.60;;;1.20;;
10275;SDS011;5183;51.190;6.820;2022-09-09T09:38:20;4.33;;;1.50;;
10275;SDS011;5183;51.190;6.820;2022-09-09T09:40:49;3.33;;;1.60;;
10275;SDS011;5183;51.190;6.820;2022-09-09T09:43:21;3.73;;;1.53;;
10275;SDS011;5183;51.190;6.820;2022-09-09T09:45:51;4.17;;;1.43;;
10275;SDS011;5183;51.190;6.820;2022-09-09T09:48:18;5.60;;;1.40;;
10275;SDS011;5183;51.190;6.820;2022-09-09T09:50:50;4.17;;;1.60;;
10275;SDS011;5183;51.190;6.820;2022-09-09T09:53:20;5.57;;;2.60;;
10275;SDS011;5183;51.190;6.820;2022-09-09T09:55:51;3.13;;;1.30;;
10275;SDS011;5183;51.190;6.820;2022-09-09T09:58:20;4.13;;;1.60;;
10275;SDS011;5183;51.190;6.820;2022-09-09T10:00:48;3.90;;;1.60;;
10275;SDS011;5183;51.190;6.820;2022-09-09T10:03:23;4.57;;;1.87;;
10275;SDS011;5183;51.190;6.820;2022-09-09T10:05:53;4.87;;;1.33;;
10275;SDS011;5183;51.190;6.820;2022-09-09T10:08:21;4.17;;;1.47;;
10275;SDS011;5183;51.190;6.820;2022-09-09T10:11:01;3.47;;;1.17;;
10275;SDS011;5183;51.190;6.820;2022-09-09T10:13:38;4.23;;;1.20;;
10275;SDS011;5183;51.190;6.820;2022-09-09T10:16:21;4.13;;;1.17;;
10275;SDS011;5183;51.190;6.820;2022-09-09T10:18:57;4.60;;;1.50;;
10275;SDS011;5183;51.190;6.820;2022-09-09T10:21:35;3.27;;;1.27;;
10275;SDS011;5183;51.190;6.820;2022-09-09T10:27:20;3.93;;;2.00;;
10275;SDS011;5183;51.190;6.820;2022-09-09T10:29:58;5.23;;;2.63;;
10275;SDS011;5183;51.190;6.820;2022-09-09T10:32:36;5.43;;;1.60;;
10275;SDS011;5183;51.190;6.820;2022-09-09T10:35:10;2.53;;;1.33;;
10275;SDS011;5183;51.190;6.820;2022-09-09T10:37:44;5.10;;;1.70;;
10275;SDS011;5183;51.190;6.820;2022-09-09T10:40:23;4.67;;;1.40;;
10275;SDS011;5183;51.190;6.820;2022-09-09T10:43:02;3.77;;;1.67;;
10275;SDS011;5183;51.190;6.820;2022-09-09T10:45:41;3.47;;;1.40;;
10275;SDS011;5183;51.190;6.820;2022-09-09T10:48:26;2.87;;;1.30;;
10275;SDS011;5183;51.190;6.820;2022-09-09T10:51:01;3.50;;;1.53;;
10275;SDS011;5183;51.190;6.820;2022-09-09T10:53:45;2.67;;;1.27;;
10275;SDS011;5183;51.190;6.820;2022-09-09T10:56:20;2.30;;;1.03;;
10275;SDS011;5183;51.190;6.820;2022-09-09T10:58:51;2.60;;;1.23;;
10275;SDS011;5183;51.190;6.820;2022-09-09T11:01:24;2.90;;;1.27;;
10275;SDS011;5183;51.190;6.820;2022-09-09T11:03:54;3.50;;;1.50;;
10275;SDS011;5183;51.190;6.820;2022-09-09T11:06:26;2.03;;;1.10;;
10275;SDS011;5183;51.190;6.820;2022-09-09T11:08:59;3.37;;;1.20;;
10275;SDS011;5183;51.190;6.820;2022-09-09T11:11:29;2.17;;;0.90;;
10275;SDS011;5183;51.190;6.820;2022-09-09T11:14:01;3.23;;;1.30;;
10275;SDS011;5183;51.190;6.820;2022-09-09T11:16:33;4.50;;;1.20;;
10275;SDS011;5183;51.190;6.820;2022-09-09T11:19:11;3.13;;;1.17;;
10275;SDS011;5183;51.190;6.820;2022-09-09T11:21:44;1.97;;;1.43;;
10275;SDS011;5183;51.190;6.820;2022-09-09T11:24:15;4.43;;;1.30;;
10275;SDS011;5183;51.190;6.820;2022-09-09T11:26:48;4.60;;;1.30;;
10275;SDS011;5183;51.190;6.820;2022-09-09T11:29:27;2.33;;;1.27;;
10275;SDS011;5183;51.190;6.820;2022-09-09T11:32:29;3.37;;;1.70;;
10275;SDS011;5183;51.190;6.820;2022-09-09T11:35:16;4.43;;;1.50;;
10275;SDS011;5183;51.190;6.820;2022-09-09T11:38:07;1.97;;;1.00;;
10275;SDS011;5183;51.190;6.820;2022-09-09T11:40:44;4.03;;;1.50;;
10275;SDS011;5183;51.190;6.820;2022-09-09T11:43:13;2.73;;;1.03;;
10275;SDS011;5183;51.190;6.820;2022-09-09T11:45:50;1.97;;;0.97;;
10275;SDS011;5183;51.190;6.820;2022-09-09T11:48:23;3.10;;;1.30;;
10275;SDS011;5183;51.190;6.820;2022-09-09T11:50:57;3.23;;;1.53;;
10275;SDS011;5183;51.190;6.820;2022-09-09T11:53:26;6.90;;;2.67;;
10275;SDS011;5183;51.190;6.820;2022-09-09T11:56:08;4.20;;;1.20;;
10275;SDS011;5183;51.190;6.820;2022-09-09T11:58:39;3.00;;;1.10;;
10275;SDS011;5183;51.190;6.820;2022-09-09T12:07:02;3.87;;;1.30;;
10275;SDS011;5183;51.190;6.820;2022-09-09T12:09:32;2.40;;;1.33;;
10275;SDS011;5183;51.190;6.820;2022-09-09T12:12:24;4.63;;;1.40;;
10275;SDS011;5183;51.190;6.820;2022-09-09T12:14:59;3.93;;;1.27;;
10275;SDS011;5183;51.190;6.820;2022-09-09T12:17:29;5.47;;;1.70;;
10275;SDS011;5183;51.190;6.820;2022-09-09T12:20:00;3.70;;;1.70;;
10275;SDS011;5183;51.190;6.820;2022-09-09T12:22:34;3.77;;;1.37;;
10275;SDS011;5183;51.190;6.820;2022-09-09T12:25:09;4.20;;;1.27;;
10275;SDS011;5183;51.190;6.820;2022-09-09T12:27:51;4.90;;;1.80;;
10275;SDS011;5183;51.190;6.820;2022-09-09T12:30:28;2.37;;;1.40;;
10275;SDS011;5183;51.190;6.820;2022-09-09T12:33:01;6.40;;;1.87;;
10275;SDS011;5183;51.190;6.820;2022-09-09T12:35:28;4.23;;;1.30;;
10275;SDS011;5183;51.190;6.820;2022-09-09T12:37:57;4.70;;;1.50;;
10275;SDS011;5183;51.190;6.820;2022-09-09T12:40:27;3.43;;;1.37;;
10275;SDS011;5183;51.190;6.820;2022-09-09T12:42:58;2.83;;;1.30;;
10275;SDS011;5183;51.190;6.820;2022-09-09T12:45:26;2.43;;;1.10;;
10275;SDS011;5183;51.190;6.820;2022-09-09T12:47:57;2.57;;;1.30;;
10275;SDS011;5183;51.190;6.820;2022-09-09T12:50:27;5.00;;;1.20;;
10275;SDS011;5183;51.190;6.820;2022-09-09T12:52:57;3.87;;;1.40;;
10275;SDS011;5183;51.190;6.820;2022-09-09T12:55:28;3.07;;;1.27;;
10275;SDS011;5183;51.190;6.820;2022-09-09T12:57:59;3.37;;;1.50;;
10275;SDS011;5183;51.190;6.820;2022-09-09T13:00:29;14.17;;;3.20;;
10275;SDS011;5183;51.190;6.820;2022-09-09T13:02:57;5.60;;;2.57;;
10275;SDS011;5183;51.190;6.820;2022-09-09T13:05:26;6.90;;;2.00;;
10275;SDS011;5183;51.190;6.820;2022-09-09T13:08:00;1.87;;;1.00;;
10275;SDS011;5183;51.190;6.820;2022-09-09T13:10:28;3.00;;;1.53;;
10275;SDS011;5183;51.190;6.820;2022-09-09T13:12:59;2.77;;;1.20;;
10275;SDS011;5183;51.190;6.820;2022-09-09T13:15:28;4.43;;;1.30;;
10275;SDS011;5183;51.190;6.820;2022-09-09T13:17:56;4.07;;;1.20;;
10275;SDS011;5183;51.190;6.820;2022-09-09T13:20:26;2.23;;;1.30;;
10275;SDS011;5183;51.190;6.820;2022-09-09T13:22:54;2.17;;;1.20;;
10275;SDS011;5183;51.190;6.820;2022-09-09T13:25:23;2.67;;;1.30;;
10275;SDS011;5183;51.190;6.820;2022-09-09T13:27:52;2.43;;;1.37;;
10275;SDS011;5183;51.190;6.820;2022-09-09T13:30:27;5.33;;;1.50;;
10275;SDS011;5183;51.190;6.820;2022-09-09T13:33:06;3.50;;;1.30;;
10275;SDS011;5183;51.190;6.820;2022-09-09T13:35:48;4.40;;;1.50;;
10275;SDS011;5183;51.190;6.820;2022-09-09T13:38:18;3.13;;;1.53;;
10275;SDS011;5183;51.190;6.820;2022-09-09T13:40:52;4.13;;;1.50;;
10275;SDS011;5183;51.190;6.820;2022-09-09T13:43:22;3.53;;;1.30;;
10275;SDS011;5183;51.190;6.820;2022-09-09T13:45:56;3.73;;;1.70;;
10275;SDS011;5183;51.190;6.820;2022-09-09T13:48:25;3.87;;;1.17;;
10275;SDS011;5183;51.190;6.820;2022-09-09T13:50:55;3.37;;;1.60;;
10275;SDS011;5183;51.190;6.820;2022-09-09T13:53:24;2.67;;;1.30;;
10275;SDS011;5183;51.190;6.820;2022-09-09T13:55:51;4.17;;;1.60;;
10275;SDS011;5183;51.190;6.820;2022-09-09T13:58:18;2.17;;;1.40;;
10275;SDS011;5183;51.190;6.820;2022-09-09T14:00:46;2.30;;;1.30;;
10275;SDS011;5183;51.190;6.820;2022-09-09T14:03:16;3.83;;;1.30;;
10275;SDS011;5183;51.190;6.820;2022-09-09T14:05:43;5.07;;;1.50;;
10275;SDS011;5183;51.190;6.820;2022-09-09T14:08:13;2.53;;;1.20;;
10275;SDS011;5183;51.190;6.820;2022-09-09T14:10:48;3.23;;;1.20;;
10275;SDS011;5183;51.190;6.820;2022-09-09T14:13:15;3.27;;;1.63;;
10275;SDS011;5183;51.190;6.820;2022-09-09T14:15:42;2.93;;;1.50;;
10275;SDS011;5183;51.190;6.820;2022-09-09T14:18:09;1.67;;;0.93;;
10275;SDS011;5183;51.190;6.820;2022-09-09T14:20:40;2.77;;;1.10;;
10275;SDS011;5183;51.190;6.820;2022-09-09T14:23:09;2.57;;;0.97;;
10275;SDS011;5183;51.190;6.820;2022-09-09T14:25:39;2.50;;;0.90;;
10275;SDS011;5183;51.190;6.820;2022-09-09T14:28:08;3.20;;;1.07;;
10275;SDS011;5183;51.190;6.820;2022-09-09T14:30:37;3.40;;;1.00;;
10275;SDS011;5183;51.190;6.820;2022-09-09T14:33:05;2.97;;;1.00;;
10275;SDS011;5183;51.190;6.820;2022-09-09T14:35:32;3.63;;;1.30;;
10275;SDS011;5183;51.190;6.820;2022-09-09T14:38:00;2.47;;;1.27;;
10275;SDS011;5183;51.190;6.820;2022-09-09T14:40:27;2.10;;;1.00;;
10275;SDS011;5183;51.190;6.820;2022-09-09T14:42:54;2.17;;;1.00;;
10275;SDS011;5183;51.190;6.820;2022-09-09T14:45:21;0.90;;;0.60;;
10275;SDS011;5183;51.190;6.820;2022-09-09T14:47:49;1.60;;;0.70;;
10275;SDS011;5183;51.190;6.820;2022-09-09T14:50:17;2.33;;;0.70;;
10275;SDS011;5183;51.190;6.820;2022-09-09T14:52:43;4.57;;;1.30;;
10275;SDS011;5183;51.190;6.820;2022-09-09T14:55:12;3.17;;;0.90;;
10275;SDS011;5183;51.190;6.820;2022-09-09T14:57:40;2.53;;;1.30;;
10275;SDS011;5183;51.190;6.820;2022-09-09T15:00:08;2.33;;;1.20;;
10275;SDS011;5183;51.190;6.820;2022-09-09T15:02:35;3.13;;;1.57;;
10275;SDS011;5183;51.190;6.820;2022-09-09T15:05:03;1.40;;;0.90;;
10275;SDS011;5183;51.190;6.820;2022-09-09T15:07:30;1.53;;;1.00;;
10275;SDS011;5183;51.190;6.820;2022-09-09T15:09:59;3.03;;;1.13;;
10275;SDS011;5183;51.190;6.820;2022-09-09T15:12:27;1.10;;;1.00;;
10275;SDS011;5183;51.190;6.820;2022-09-09T15:14:54;2.83;;;1.40;;
10275;SDS011;5183;51.190;6.820;2022-09-09T15:17:21;1.77;;;1.43;;
10275;SDS011;5183;51.190;6.820;2022-09-09T15:19:51;1.90;;;1.40;;
10275;SDS011;5183;51.190;6.820;2022-09-09T15:22:18;2.53;;;1.30;;
10275;SDS011;5183;51.190;6.820;2022-09-09T15:24:45;3.60;;;3.17;;
10275;SDS011;5183;51.190;6.820;2022-09-09T15:27:12;3.37;;;1.90;;
10275;SDS011;5183;51.190;6.820;2022-09-09T15:29:41;4.17;;;2.43;;
10275;SDS011;5183;51.190;6.820;2022-09-09T15:32:09;5.23;;;4.50;;